Time;durP1;ratioP1;P1;durP2;ratioP2;P2;SDS_P1;SDS_P2;PMS_P1;PMS_P2;Temp;Humidity;BMP_temperature;BMP_pressure;BME280_temperature;BME280_humidity;BME280_pressure;Samples;Min_cycle;Max_cycle;Signal;HPM_P1;HPM_P2
2021/10/28 00:14:36;;;;;;;50.35;26.88;;;;;;;;;;5046400;28;20049;-83
2021/10/28 00:17:09;;;;;;;55.20;28.67;;;;;;;;;;5043825;28;20699;-82
2021/10/28 00:19:38;;;;;;;44.28;26.80;;;;;;;;;;5041937;28;20076;-82
2021/10/28 00:22:05;;;;;;;51.05;27.10;;;;;;;;;;5038764;28;20060;-82
2021/10/28 00:24:32;;;;;;;58.55;30.05;;;;;;;;;;5040397;28;20057;-83
2021/10/28 00:26:59;;;;;;;54.58;29.52;;;;;;;;;;5040254;28;20096;-83
2021/10/28 00:29:26;;;;;;;55.75;28.83;;;;;;;;;;5038410;28;20049;-83
2021/10/28 00:31:57;;;;;;;52.38;28.08;;;;;;;;;;5036960;28;20037;-82
2021/10/28 00:34:24;;;;;;;55.13;28.65;;;;;;;;;;5038951;28;20108;-83
2021/10/28 00:36:52;;;;;;;52.92;28.85;;;;;;;;;;5037085;28;20080;-83
2021/10/28 00:39:20;;;;;;;53.50;29.08;;;;;;;;;;5038207;28;20042;-83
2021/10/28 00:41:46;;;;;;;49.55;28.77;;;;;;;;;;5040682;28;20133;-83
2021/10/28 00:44:13;;;;;;;49.78;29.92;;;;;;;;;;5039026;28;20513;-83
2021/10/28 00:46:47;;;;;;;54.10;30.58;;;;;;;;;;5040740;28;20136;-82
2021/10/28 00:49:14;;;;;;;51.35;28.90;;;;;;;;;;5039669;28;20052;-83
2021/10/28 00:51:41;;;;;;;48.63;29.10;;;;;;;;;;5039318;28;20058;-83
2021/10/28 00:54:14;;;;;;;47.40;27.90;;;;;;;;;;5039587;28;20041;-83
2021/10/28 00:56:42;;;;;;;48.80;27.17;;;;;;;;;;5040425;28;20168;-83
2021/10/28 00:59:09;;;;;;;52.47;27.35;;;;;;;;;;5039365;28;20053;-83
2021/10/28 01:01:36;;;;;;;47.05;26.90;;;;;;;;;;5039348;28;20073;-83
2021/10/28 01:04:04;;;;;;;49.33;27.20;;;;;;;;;;5039558;28;20322;-83
2021/10/28 01:06:32;;;;;;;42.92;25.77;;;;;;;;;;5040178;28;20092;-83
2021/10/28 01:09:03;;;;;;;53.13;28.52;;;;;;;;;;5040619;28;20054;-83
2021/10/28 01:11:30;;;;;;;49.35;28.15;;;;;;;;;;5040130;28;20050;-83
2021/10/28 01:13:57;;;;;;;49.78;26.88;;;;;;;;;;5039781;28;20057;-83
2021/10/28 01:16:25;;;;;;;51.92;28.83;;;;;;;;;;5039813;28;20496;-83
2021/10/28 01:18:52;;;;;;;49.22;28.40;;;;;;;;;;5039670;28;20161;-83
2021/10/28 01:21:20;;;;;;;46.50;27.58;;;;;;;;;;5040432;28;20045;-83
2021/10/28 01:23:47;;;;;;;49.58;27.67;;;;;;;;;;5038173;28;20284;-83
2021/10/28 01:26:14;;;;;;;43.85;26.67;;;;;;;;;;5037171;28;20053;-83
2021/10/28 01:29:00;;;;;;;43.75;27.17;;;;;;;;;;5038614;28;20485;-83
2021/10/28 01:31:29;;;;;;;47.63;27.73;;;;;;;;;;5038312;28;20244;-83
2021/10/28 01:33:56;;;;;;;47.58;27.17;;;;;;;;;;5037902;28;20045;-83
2021/10/28 01:36:25;;;;;;;50.08;28.90;;;;;;;;;;5036784;28;20041;-83
2021/10/28 01:38:52;;;;;;;65.03;30.85;;;;;;;;;;5038036;28;20305;-82
2021/10/28 01:41:22;;;;;;;51.45;29.33;;;;;;;;;;5039329;28;20057;-82
2021/10/28 01:43:50;;;;;;;51.20;28.73;;;;;;;;;;5038720;28;20064;-82
2021/10/28 01:46:17;;;;;;;48.13;27.77;;;;;;;;;;5038597;28;20053;-82
2021/10/28 01:48:46;;;;;;;46.78;25.63;;;;;;;;;;5037542;28;20138;-83
2021/10/28 01:51:18;;;;;;;48.10;26.95;;;;;;;;;;5037708;28;20496;-83
2021/10/28 01:53:46;;;;;;;50.72;28.42;;;;;;;;;;5036049;28;20362;-82
2021/10/28 01:56:12;;;;;;;48.28;28.15;;;;;;;;;;5037561;28;20413;-83
2021/10/28 01:58:42;;;;;;;52.78;28.23;;;;;;;;;;5038301;28;20052;-83
2021/10/28 02:01:09;;;;;;;51.40;28.63;;;;;;;;;;5036359;28;20118;-83
2021/10/28 02:03:36;;;;;;;50.92;27.75;;;;;;;;;;5036537;28;20049;-83
2021/10/28 02:06:03;;;;;;;53.33;31.08;;;;;;;;;;5035734;28;20050;-83
2021/10/28 02:08:32;;;;;;;52.80;29.00;;;;;;;;;;5037156;28;20045;-83
2021/10/28 02:10:58;;;;;;;53.20;28.15;;;;;;;;;;5036494;28;20072;-83
2021/10/28 02:13:25;;;;;;;51.83;29.85;;;;;;;;;;5035756;28;20405;-83
2021/10/28 02:15:52;;;;;;;52.53;28.85;;;;;;;;;;5037708;28;20329;-83
2021/10/28 02:18:19;;;;;;;57.47;29.35;;;;;;;;;;5036804;28;20050;-83
2021/10/28 02:20:46;;;;;;;50.63;29.17;;;;;;;;;;5038085;28;20064;-83
2021/10/28 02:23:16;;;;;;;50.28;28.83;;;;;;;;;;5036642;28;20392;-82
2021/10/28 02:25:42;;;;;;;53.38;29.35;;;;;;;;;;5038422;28;20385;-83
2021/10/28 02:28:09;;;;;;;54.80;30.35;;;;;;;;;;5036330;28;20229;-83
2021/10/28 02:30:36;;;;;;;53.67;29.40;;;;;;;;;;5037209;28;20049;-83
2021/10/28 02:33:03;;;;;;;52.33;28.42;;;;;;;;;;5036195;28;20144;-83
2021/10/28 02:35:30;;;;;;;48.67;28.23;;;;;;;;;;5035352;28;20136;-83
2021/10/28 02:37:57;;;;;;;44.53;27.25;;;;;;;;;;5036826;28;20445;-83
2021/10/28 02:40:24;;;;;;;54.20;29.02;;;;;;;;;;5036829;28;20264;-83
2021/10/28 02:42:51;;;;;;;49.83;27.05;;;;;;;;;;5037207;28;20292;-83
2021/10/28 02:45:21;;;;;;;53.58;29.98;;;;;;;;;;5039127;28;20448;-83
2021/10/28 02:47:51;;;;;;;53.80;27.85;;;;;;;;;;5045807;28;20255;-83
2021/10/28 02:50:18;;;;;;;58.53;29.13;;;;;;;;;;5051808;28;20041;-83
2021/10/28 02:52:46;;;;;;;55.42;29.80;;;;;;;;;;5043862;28;20136;-83
2021/10/28 02:55:13;;;;;;;48.85;28.33;;;;;;;;;;5037536;28;20064;-83
2021/10/28 02:57:41;;;;;;;48.67;27.95;;;;;;;;;;5038084;28;20045;-83
2021/10/28 03:00:09;;;;;;;53.38;28.63;;;;;;;;;;5037605;28;20088;-83
2021/10/28 03:02:36;;;;;;;57.92;31.77;;;;;;;;;;5037305;28;20069;-82
2021/10/28 03:05:05;;;;;;;53.95;30.45;;;;;;;;;;5037691;28;20409;-84
2021/10/28 03:07:34;;;;;;;58.08;30.17;;;;;;;;;;5037306;28;20054;-84
2021/10/28 03:10:02;;;;;;;52.20;28.88;;;;;;;;;;5036582;28;20140;-84
2021/10/28 03:12:30;;;;;;;56.58;29.73;;;;;;;;;;5037175;28;20054;-85
2021/10/28 03:15:01;;;;;;;54.55;28.60;;;;;;;;;;5038219;28;20140;-85
2021/10/28 03:28:02;;;;;;;60.85;30.65;;;;;;;;;;5029623;28;20346;-84
2021/10/28 03:30:36;;;;;;;57.70;29.58;;;;;;;;;;5037265;28;20053;-84
2021/10/28 03:33:04;;;;;;;54.90;28.90;;;;;;;;;;5035318;28;20056;-83
2021/10/28 03:35:31;;;;;;;55.80;29.15;;;;;;;;;;5036317;28;20433;-83
2021/10/28 03:38:04;;;;;;;52.67;29.50;;;;;;;;;;5037722;28;20374;-83
2021/10/28 03:40:59;;;;;;;54.45;29.38;;;;;;;;;;5036921;28;20045;-83
2021/10/28 03:44:04;;;;;;;55.33;28.67;;;;;;;;;;5036575;28;20046;-83
2021/10/28 03:47:14;;;;;;;72.07;30.98;;;;;;;;;;5040160;28;20077;-83
2021/10/28 04:29:34;;;;;;;56.72;29.48;;;;;;;;;;5041727;28;20479;-84
2021/10/28 04:32:02;;;;;;;44.78;26.95;;;;;;;;;;5040450;28;20064;-84
2021/10/28 04:34:35;;;;;;;54.50;30.48;;;;;;;;;;5039002;28;20092;-84
2021/10/28 04:37:08;;;;;;;55.65;28.10;;;;;;;;;;5038813;28;20050;-84
2021/10/28 04:39:34;;;;;;;64.10;28.73;;;;;;;;;;5039679;28;20132;-84
2021/10/28 04:42:02;;;;;;;52.17;28.33;;;;;;;;;;5039759;28;20050;-84
2021/10/28 04:44:31;;;;;;;59.83;28.30;;;;;;;;;;5038186;28;20115;-84
2021/10/28 04:46:58;;;;;;;51.08;26.55;;;;;;;;;;5038345;28;20045;-83
2021/10/28 04:49:25;;;;;;;53.83;26.63;;;;;;;;;;5039611;28;20049;-83
2021/10/28 04:51:53;;;;;;;51.75;27.70;;;;;;;;;;5037992;28;20071;-83
2021/10/28 04:54:20;;;;;;;56.65;27.77;;;;;;;;;;5039088;28;20149;-83
2021/10/28 04:56:46;;;;;;;50.95;25.98;;;;;;;;;;5039562;28;20121;-83
2021/10/28 04:59:14;;;;;;;51.22;26.38;;;;;;;;;;5036582;28;20052;-83
2021/10/28 05:01:41;;;;;;;50.80;26.23;;;;;;;;;;5035066;28;20055;-83
2021/10/28 05:04:09;;;;;;;48.13;26.10;;;;;;;;;;5036330;28;20087;-83
2021/10/28 05:06:36;;;;;;;47.22;24.45;;;;;;;;;;5036514;28;20138;-83
2021/10/28 05:09:04;;;;;;;46.70;26.00;;;;;;;;;;5036821;28;20352;-84
2021/10/28 05:11:31;;;;;;;53.63;26.15;;;;;;;;;;5035469;28;20058;-83
2021/10/28 05:13:58;;;;;;;52.65;25.98;;;;;;;;;;5037215;28;20046;-84
2021/10/28 05:16:26;;;;;;;43.92;22.80;;;;;;;;;;5036381;28;20073;-84
2021/10/28 05:18:57;;;;;;;49.38;24.88;;;;;;;;;;5039020;28;20144;-83
2021/10/28 05:21:24;;;;;;;43.58;23.52;;;;;;;;;;5034976;28;20045;-83
2021/10/28 05:23:51;;;;;;;46.58;24.08;;;;;;;;;;5035369;28;20045;-83
2021/10/28 05:26:18;;;;;;;41.30;23.48;;;;;;;;;;5036912;28;20045;-83
2021/10/28 05:28:45;;;;;;;42.22;24.35;;;;;;;;;;5036470;28;20467;-83
2021/10/28 05:31:15;;;;;;;38.63;21.58;;;;;;;;;;5036500;28;20045;-83
2021/10/28 05:33:45;;;;;;;43.97;23.38;;;;;;;;;;5037953;28;20113;-83
2021/10/28 05:36:12;;;;;;;37.13;20.92;;;;;;;;;;5038886;28;20063;-84
2021/10/28 05:38:39;;;;;;;37.67;22.58;;;;;;;;;;5037762;28;20496;-85
2021/10/28 05:41:06;;;;;;;42.97;22.42;;;;;;;;;;5043694;28;20049;-84
2021/10/28 05:43:33;;;;;;;45.00;22.63;;;;;;;;;;5045154;28;20053;-84
2021/10/28 05:46:00;;;;;;;44.03;23.05;;;;;;;;;;5047036;28;20037;-84
2021/10/28 05:48:27;;;;;;;39.80;23.17;;;;;;;;;;5044564;28;20096;-82
2021/10/28 05:51:03;;;;;;;37.88;20.88;;;;;;;;;;5035508;28;20115;-84
2021/10/28 05:53:31;;;;;;;47.13;24.38;;;;;;;;;;5037038;28;20049;-83
2021/10/28 05:55:58;;;;;;;41.75;21.13;;;;;;;;;;5033936;28;20050;-83
2021/10/28 05:58:27;;;;;;;43.47;23.10;;;;;;;;;;5033578;28;20069;-83
2021/10/28 06:00:54;;;;;;;36.85;20.67;;;;;;;;;;5033897;28;20106;-83
2021/10/28 06:03:24;;;;;;;34.85;20.17;;;;;;;;;;5034143;28;20058;-84
2021/10/28 06:05:54;;;;;;;40.42;21.45;;;;;;;;;;5038180;28;20061;-84
2021/10/28 06:08:22;;;;;;;37.35;21.67;;;;;;;;;;5034164;28;20053;-84
2021/10/28 06:10:50;;;;;;;38.10;21.67;;;;;;;;;;5035450;28;20049;-84
2021/10/28 06:13:23;;;;;;;41.17;22.83;;;;;;;;;;5036544;28;20225;-83
2021/10/28 06:15:50;;;;;;;45.55;22.50;;;;;;;;;;5034300;28;20060;-83
2021/10/28 06:20:48;;;;;;;40.08;21.92;;;;;;;;;;5035622;28;20104;-83
2021/10/28 06:23:15;;;;;;;39.88;21.70;;;;;;;;;;5033777;28;20049;-83
2021/10/28 06:25:42;;;;;;;42.42;21.27;;;;;;;;;;5032607;28;20049;-83
2021/10/28 06:28:09;;;;;;;50.25;23.77;;;;;;;;;;5032507;28;20061;-83
2021/10/28 06:30:36;;;;;;;48.20;23.10;;;;;;;;;;5032960;28;20080;-83
2021/10/28 06:33:08;;;;;;;44.45;21.25;;;;;;;;;;5031387;28;20076;-83
2021/10/28 06:35:36;;;;;;;41.33;21.60;;;;;;;;;;5033734;28;20049;-84
2021/10/28 06:38:06;;;;;;;40.95;21.38;;;;;;;;;;5034561;28;20050;-83
2021/10/28 06:40:37;;;;;;;37.72;20.02;;;;;;;;;;5033926;28;20226;-84
2021/10/28 06:43:04;;;;;;;39.85;21.65;;;;;;;;;;5035259;28;20441;-84
2021/10/28 06:45:31;;;;;;;39.97;21.30;;;;;;;;;;5033032;28;20244;-84
2021/10/28 06:47:58;;;;;;;47.95;21.42;;;;;;;;;;5033718;28;20045;-84
2021/10/28 06:50:42;;;;;;;40.67;21.42;;;;;;;;;;5032828;28;20057;-84
2021/10/28 06:53:20;;;;;;;45.00;25.80;;;;;;;;;;5035972;28;20068;-84
2021/10/28 07:03:56;;;;;;;31.17;15.93;;;;;;;;;;5035470;28;20069;-83
2021/10/28 07:06:26;;;;;;;38.97;17.75;;;;;;;;;;5031706;28;20073;-84
2021/10/28 07:09:05;;;;;;;27.80;15.55;;;;;;;;;;5033335;28;20053;-84
2021/10/28 07:11:37;;;;;;;19.35;13.40;;;;;;;;;;5032529;28;20057;-84
2021/10/28 07:14:07;;;;;;;17.23;11.25;;;;;;;;;;5034572;28;20084;-85
2021/10/28 07:17:05;;;;;;;20.45;12.65;;;;;;;;;;5033374;28;20061;-84
2021/10/28 07:22:37;;;;;;;20.50;11.27;;;;;;;;;;5029641;28;20385;-84
2021/10/28 07:25:36;;;;;;;20.65;12.38;;;;;;;;;;5037326;28;20115;-84
2021/10/28 07:31:32;;;;;;;13.85;10.60;;;;;;;;;;4993477;28;20145;-84
2021/10/28 08:21:14;;;;;;;19.05;10.05;;;;;;;;;;5048666;28;20045;-83
2021/10/28 08:24:21;;;;;;;19.48;9.30;;;;;;;;;;5047329;28;20046;-82
2021/10/28 08:29:25;;;;;;;16.05;9.40;;;;;;;;;;5045934;28;19921;-82
2021/10/28 08:32:40;;;;;;;15.02;9.35;;;;;;;;;;5043094;28;20041;-83
2021/10/28 08:35:29;;;;;;;16.50;10.40;;;;;;;;;;5043973;28;20049;-83
2021/10/28 08:37:58;;;;;;;13.40;9.23;;;;;;;;;;5043858;28;20052;-82
2021/10/28 08:40:26;;;;;;;17.25;10.30;;;;;;;;;;5044566;28;20041;-83
2021/10/28 08:42:57;;;;;;;13.95;9.48;;;;;;;;;;5045086;28;20076;-83
2021/10/28 08:45:25;;;;;;;15.70;9.50;;;;;;;;;;5039390;28;20053;-83
2021/10/28 08:47:57;;;;;;;15.57;10.60;;;;;;;;;;5033660;28;20041;-83
2021/10/28 08:50:42;;;;;;;13.10;9.68;;;;;;;;;;5033252;28;20240;-82
2021/10/28 08:55:45;;;;;;;16.25;10.13;;;;;;;;;;5033165;28;20049;-81
2021/10/28 09:26:28;;;;;;;16.52;8.75;;;;;;;;;;5033221;28;20487;-82
2021/10/28 09:29:04;;;;;;;12.68;9.43;;;;;;;;;;5031620;28;20057;-82
2021/10/28 09:31:35;;;;;;;12.88;8.90;;;;;;;;;;5035089;28;20049;-83
2021/10/28 09:34:28;;;;;;;14.38;9.07;;;;;;;;;;5035694;28;20053;-83
2021/10/28 09:48:32;;;;;;;13.73;9.30;;;;;;;;;;5032528;28;20107;-82
2021/10/28 09:51:01;;;;;;;13.45;8.48;;;;;;;;;;5029671;28;20077;-82
2021/10/28 09:53:43;;;;;;;11.85;8.82;;;;;;;;;;5030576;28;20103;-82
2021/10/28 09:59:04;;;;;;;13.65;8.73;;;;;;;;;;5031840;28;20072;-82
2021/10/28 10:01:45;;;;;;;10.60;8.18;;;;;;;;;;5029835;28;20053;-82
2021/10/28 10:04:16;;;;;;;12.75;8.40;;;;;;;;;;5033279;28;20049;-82
2021/10/28 10:06:52;;;;;;;13.23;8.88;;;;;;;;;;5034251;28;20125;-82
2021/10/28 10:09:20;;;;;;;12.02;7.78;;;;;;;;;;5030700;28;20279;-83
2021/10/28 10:11:50;;;;;;;13.05;8.45;;;;;;;;;;5030116;28;20101;-82
2021/10/28 10:14:20;;;;;;;15.65;8.57;;;;;;;;;;5030966;28;20108;-83
2021/10/28 10:16:58;;;;;;;13.88;8.20;;;;;;;;;;5031205;28;20142;-82
2021/10/28 10:19:29;;;;;;;13.73;8.25;;;;;;;;;;5032472;28;20056;-82
2021/10/28 10:22:00;;;;;;;14.40;7.43;;;;;;;;;;5031584;28;20045;-82
2021/10/28 11:26:34;;;;;;;9.45;5.63;;;;;;;;;;5013183;28;20060;-82
2021/10/28 12:15:07;;;;;;;12.43;6.40;;;;;;;;;;5016871;28;20124;-83
2021/10/28 12:45:19;;;;;;;9.70;4.95;;;;;;;;;;5010372;28;20045;-83
2021/10/28 12:50:52;;;;;;;7.03;5.05;;;;;;;;;;5013193;28;20417;-83
2021/10/28 13:05:30;;;;;;;9.07;4.40;;;;;;;;;;5014460;28;20074;-82
2021/10/28 13:52:39;;;;;;;5.75;3.08;;;;;;;;;;5008334;28;20072;-82
2021/10/28 13:57:29;;;;;;;7.68;3.10;;;;;;;;;;5011871;28;20072;-81
2021/10/28 14:32:01;;;;;;;8.52;4.32;;;;;;;;;;5010962;28;20061;-82
2021/10/28 15:02:02;;;;;;;7.63;3.30;;;;;;;;;;4910105;29;20080;-83
2021/10/28 15:29:53;;;;;;;8.93;2.70;;;;;;;;;;5011094;28;20096;-82
2021/10/28 15:33:06;;;;;;;4.78;2.60;;;;;;;;;;4993662;28;20077;-82
2021/10/28 16:24:09;;;;;;;4.80;2.10;;;;;;;;;;5014517;28;20045;-83
2021/10/28 16:26:37;;;;;;;4.90;1.80;;;;;;;;;;5013948;28;20153;-82
2021/10/28 16:29:07;;;;;;;3.17;1.85;;;;;;;;;;5022551;28;20069;-82
2021/10/28 16:31:35;;;;;;;5.32;2.25;;;;;;;;;;5039963;28;20068;-82
2021/10/28 16:34:07;;;;;;;7.03;2.30;;;;;;;;;;5006142;28;20038;-82
2021/10/28 16:36:41;;;;;;;6.13;2.30;;;;;;;;;;5022073;28;20204;-82
2021/10/28 16:39:12;;;;;;;5.28;3.05;;;;;;;;;;5005339;28;20092;-82
2021/10/28 16:41:43;;;;;;;6.35;2.47;;;;;;;;;;5038241;28;20038;-82
2021/10/28 16:44:11;;;;;;;5.15;2.05;;;;;;;;;;5007144;28;20034;-82
2021/10/28 16:46:38;;;;;;;5.72;2.22;;;;;;;;;;5008099;28;20163;-82
2021/10/28 16:49:18;;;;;;;4.40;2.30;;;;;;;;;;5025357;28;20057;-81
2021/10/28 16:51:47;;;;;;;6.72;2.40;;;;;;;;;;5026633;28;20060;-83
2021/10/28 16:54:17;;;;;;;5.70;2.13;;;;;;;;;;5008495;28;20038;-83
2021/10/28 16:56:45;;;;;;;5.90;2.50;;;;;;;;;;5009209;28;20046;-82
2021/10/28 16:59:25;;;;;;;7.82;2.50;;;;;;;;;;5024101;28;20055;-83
2021/10/28 17:02:11;;;;;;;4.50;2.60;;;;;;;;;;5006959;28;20045;-82
2021/10/28 17:04:46;;;;;;;6.88;2.38;;;;;;;;;;5025772;28;20045;-82
2021/10/28 17:07:13;;;;;;;5.05;2.58;;;;;;;;;;5024491;28;20360;-82
2021/10/28 17:09:40;;;;;;;8.60;2.78;;;;;;;;;;5001871;28;20050;-82
2021/10/28 17:12:09;;;;;;;6.85;2.40;;;;;;;;;;5031813;28;20084;-82
2021/10/28 17:14:36;;;;;;;5.03;2.30;;;;;;;;;;4998669;28;20093;-82
2021/10/28 17:17:03;;;;;;;4.13;2.88;;;;;;;;;;5014374;28;20191;-82
2021/10/28 17:19:32;;;;;;;6.38;2.60;;;;;;;;;;5011818;28;20227;-82
2021/10/28 17:22:01;;;;;;;7.93;2.58;;;;;;;;;;5012509;28;20053;-82
2021/10/28 17:24:38;;;;;;;4.40;2.67;;;;;;;;;;5002635;28;20113;-81
2021/10/28 17:27:07;;;;;;;8.27;2.85;;;;;;;;;;5021831;28;20228;-82
2021/10/28 17:29:34;;;;;;;4.90;2.75;;;;;;;;;;5005504;28;20181;-82
2021/10/28 17:32:04;;;;;;;6.90;2.55;;;;;;;;;;5003152;28;20216;-81
2021/10/28 17:34:37;;;;;;;4.97;2.53;;;;;;;;;;4998454;28;20054;-81
2021/10/28 17:37:06;;;;;;;5.97;2.63;;;;;;;;;;4998167;28;20179;-82
2021/10/28 17:39:33;;;;;;;6.65;2.78;;;;;;;;;;5031107;28;20046;-82
2021/10/28 17:42:04;;;;;;;10.30;2.90;;;;;;;;;;5024782;28;20041;-82
2021/10/28 17:44:38;;;;;;;4.68;2.65;;;;;;;;;;5026114;28;20064;-83
2021/10/28 17:47:12;;;;;;;4.95;2.55;;;;;;;;;;4998227;28;20166;-82
2021/10/28 17:49:38;;;;;;;6.43;2.47;;;;;;;;;;5015787;28;20111;-82
2021/10/28 17:52:22;;;;;;;6.63;2.75;;;;;;;;;;4997634;28;20060;-82
2021/10/28 17:54:49;;;;;;;8.73;2.58;;;;;;;;;;4996159;28;20045;-82
2021/10/28 17:57:16;;;;;;;4.82;2.78;;;;;;;;;;5014093;28;20052;-82
2021/10/28 17:59:45;;;;;;;4.22;2.97;;;;;;;;;;4995952;28;20392;-82
2021/10/28 18:02:11;;;;;;;5.25;2.88;;;;;;;;;;4996476;28;20054;-82
2021/10/28 18:04:39;;;;;;;5.32;2.90;;;;;;;;;;4995270;28;20108;-82
2021/10/28 18:07:06;;;;;;;7.78;3.67;;;;;;;;;;4994629;28;20054;-83
2021/10/28 18:09:33;;;;;;;6.38;2.72;;;;;;;;;;4996068;28;20054;-81
2021/10/28 18:12:02;;;;;;;5.60;2.85;;;;;;;;;;5026701;28;20301;-81
2021/10/28 18:14:32;;;;;;;4.55;2.70;;;;;;;;;;4993238;28;20464;-81
2021/10/28 18:16:58;;;;;;;5.80;2.70;;;;;;;;;;4992515;28;20338;-81
2021/10/28 18:19:25;;;;;;;5.95;3.10;;;;;;;;;;4993560;28;20046;-80
2021/10/28 18:21:54;;;;;;;5.30;3.50;;;;;;;;;;5011200;28;20054;-81
2021/10/28 18:24:25;;;;;;;6.78;3.30;;;;;;;;;;4992049;28;20050;-82
2021/10/28 18:26:53;;;;;;;6.47;3.50;;;;;;;;;;5011383;28;20054;-83
2021/10/28 18:29:19;;;;;;;3.83;3.13;;;;;;;;;;5010754;28;20085;-82
2021/10/28 18:31:59;;;;;;;6.40;3.53;;;;;;;;;;5011360;28;20109;-82
2021/10/28 18:34:25;;;;;;;4.78;3.28;;;;;;;;;;4993929;28;20054;-82
2021/10/28 18:36:55;;;;;;;5.88;3.20;;;;;;;;;;5010845;28;20361;-82
2021/10/28 18:39:22;;;;;;;7.22;3.40;;;;;;;;;;5011376;28;20129;-81
2021/10/28 18:41:50;;;;;;;3.72;2.95;;;;;;;;;;5010007;28;20054;-82
2021/10/28 18:44:18;;;;;;;5.60;3.75;;;;;;;;;;5011367;28;20049;-82
2021/10/28 18:46:48;;;;;;;7.13;3.17;;;;;;;;;;4995057;28;20045;-82
2021/10/28 18:49:22;;;;;;;7.25;3.20;;;;;;;;;;4994528;28;20338;-82
2021/10/28 18:51:51;;;;;;;8.27;3.65;;;;;;;;;;5011577;28;20061;-82
2021/10/28 18:54:22;;;;;;;12.88;3.50;;;;;;;;;;5025389;28;20050;-82
2021/10/28 18:56:49;;;;;;;5.88;3.50;;;;;;;;;;5027243;28;20401;-82
2021/10/28 18:59:16;;;;;;;4.40;3.15;;;;;;;;;;4993969;28;20101;-82
2021/10/28 19:01:51;;;;;;;7.47;3.47;;;;;;;;;;5012436;28;20505;-81
2021/10/28 19:04:18;;;;;;;6.25;3.50;;;;;;;;;;5012505;28;20052;-81
2021/10/28 19:06:48;;;;;;;5.20;3.88;;;;;;;;;;5012158;28;20045;-82
2021/10/28 19:09:15;;;;;;;5.50;3.60;;;;;;;;;;4992885;28;20309;-81
2021/10/28 19:11:50;;;;;;;7.82;3.95;;;;;;;;;;4993427;28;20052;-81
2021/10/28 19:14:17;;;;;;;5.53;3.75;;;;;;;;;;5008671;28;20113;-81
2021/10/28 19:16:44;;;;;;;7.43;3.78;;;;;;;;;;4992051;28;20064;-81
2021/10/28 19:19:15;;;;;;;8.52;4.35;;;;;;;;;;4996200;28;20233;-83
2021/10/28 19:21:55;;;;;;;10.25;4.05;;;;;;;;;;5013828;28;20081;-80
2021/10/28 19:24:22;;;;;;;7.45;4.57;;;;;;;;;;5015490;28;20076;-81
2021/10/28 19:26:49;;;;;;;13.88;5.00;;;;;;;;;;4996894;28;20056;-83
2021/10/28 19:29:17;;;;;;;6.28;4.45;;;;;;;;;;5032175;28;20420;-81
2021/10/28 19:32:02;;;;;;;6.07;4.45;;;;;;;;;;5015055;28;20050;-82
2021/10/28 19:34:34;;;;;;;6.82;4.25;;;;;;;;;;4997007;28;20052;-81
2021/10/28 19:37:27;;;;;;;9.77;4.18;;;;;;;;;;4997498;28;20069;-83
2021/10/28 19:47:51;;;;;;;6.43;4.78;;;;;;;;;;4994227;28;20532;-81
2021/10/28 19:50:27;;;;;;;11.68;5.60;;;;;;;;;;4996631;28;20152;-82
2021/10/28 19:53:07;;;;;;;8.40;5.60;;;;;;;;;;4967796;28;20050;-81
2021/10/28 19:55:42;;;;;;;6.88;4.95;;;;;;;;;;4997051;28;20148;-81
2021/10/28 19:58:18;;;;;;;8.35;5.00;;;;;;;;;;4977926;28;20338;-81
2021/10/28 20:00:49;;;;;;;9.77;5.60;;;;;;;;;;4976027;28;20081;-81
2021/10/28 20:21:30;;;;;;;9.13;5.53;;;;;;;;;;4993166;28;20224;-81
2021/10/28 20:24:00;;;;;;;11.05;6.00;;;;;;;;;;4979231;28;20046;-82
2021/10/28 20:26:27;;;;;;;7.80;5.93;;;;;;;;;;4979945;28;20065;-82
2021/10/28 20:28:59;;;;;;;9.25;6.03;;;;;;;;;;4983280;28;20052;-82
2021/10/28 20:31:27;;;;;;;12.63;6.47;;;;;;;;;;4974230;28;20061;-82
2021/10/28 20:37:05;;;;;;;8.20;6.00;;;;;;;;;;4987318;28;20630;-82
2021/10/28 20:39:37;;;;;;;9.45;6.30;;;;;;;;;;4980777;28;20243;-82
2021/10/28 20:42:09;;;;;;;8.77;6.05;;;;;;;;;;4970736;28;20050;-81
2021/10/28 20:44:39;;;;;;;15.00;6.88;;;;;;;;;;4981616;28;20045;-81
2021/10/28 20:47:06;;;;;;;12.20;7.18;;;;;;;;;;4979467;28;20110;-82
2021/10/28 20:49:34;;;;;;;10.73;7.30;;;;;;;;;;4983388;28;20065;-82
2021/10/28 20:52:05;;;;;;;9.75;6.85;;;;;;;;;;4980181;28;20117;-82
2021/10/28 20:54:33;;;;;;;12.50;6.88;;;;;;;;;;4996515;28;20114;-81
2021/10/28 20:57:04;;;;;;;9.98;7.28;;;;;;;;;;4982303;28;20093;-81
2021/10/28 20:59:32;;;;;;;11.75;7.68;;;;;;;;;;4979687;28;20057;-82
2021/10/28 21:01:59;;;;;;;16.45;8.27;;;;;;;;;;4998204;28;20065;-81
2021/10/28 21:04:29;;;;;;;14.05;7.35;;;;;;;;;;4978971;28;20056;-82
2021/10/28 21:06:56;;;;;;;11.55;7.00;;;;;;;;;;4991811;28;20065;-82
2021/10/28 21:09:23;;;;;;;10.93;7.53;;;;;;;;;;4990594;28;20060;-83
2021/10/28 21:11:55;;;;;;;13.65;7.78;;;;;;;;;;4997877;28;20050;-81
2021/10/28 21:14:25;;;;;;;17.95;7.78;;;;;;;;;;4989195;28;20074;-81
2021/10/28 21:16:52;;;;;;;17.85;8.45;;;;;;;;;;4978377;28;20173;-81
2021/10/28 21:19:21;;;;;;;15.85;7.13;;;;;;;;;;4961174;28;20204;-81
2021/10/28 21:21:51;;;;;;;12.68;8.23;;;;;;;;;;4961829;28;20081;-82
2021/10/28 21:24:18;;;;;;;13.50;8.77;;;;;;;;;;4980014;28;20077;-82
2021/10/28 21:26:57;;;;;;;11.75;7.85;;;;;;;;;;4977290;28;20046;-82
2021/10/28 21:29:30;;;;;;;13.80;7.70;;;;;;;;;;4976984;28;20377;-82
2021/10/28 21:32:00;;;;;;;12.25;8.63;;;;;;;;;;4977603;28;20050;-82
2021/10/28 21:34:27;;;;;;;12.63;8.52;;;;;;;;;;4977753;28;20055;-82
2021/10/28 21:36:53;;;;;;;17.45;9.10;;;;;;;;;;4960397;28;20118;-82
2021/10/28 21:39:20;;;;;;;16.13;9.43;;;;;;;;;;4977118;28;20143;-82
2021/10/28 21:41:47;;;;;;;12.82;8.55;;;;;;;;;;4958409;28;20074;-82
2021/10/28 21:44:29;;;;;;;15.02;9.43;;;;;;;;;;4963014;28;20137;-82
2021/10/28 21:46:59;;;;;;;13.65;8.98;;;;;;;;;;4996598;28;20121;-82
2021/10/28 21:49:26;;;;;;;12.85;8.98;;;;;;;;;;4996692;28;20068;-82
2021/10/28 21:52:09;;;;;;;19.42;10.40;;;;;;;;;;4997058;28;20085;-82
2021/10/28 21:55:24;;;;;;;16.17;9.65;;;;;;;;;;5016248;28;20062;-82
2021/10/28 22:02:50;;;;;;;17.67;9.35;;;;;;;;;;5015816;28;20301;-82
2021/10/28 22:05:40;;;;;;;19.42;9.95;;;;;;;;;;5017299;28;20222;-82
2021/10/28 22:25:12;;;;;;;16.58;10.23;;;;;;;;;;5018994;28;20379;-82
2021/10/28 22:27:40;;;;;;;14.95;10.18;;;;;;;;;;5018587;28;20426;-82
2021/10/28 22:30:09;;;;;;;18.65;11.02;;;;;;;;;;5001221;28;20049;-82
2021/10/28 22:32:44;;;;;;;17.52;10.65;;;;;;;;;;5020284;28;20120;-81
2021/10/28 22:35:14;;;;;;;18.35;10.98;;;;;;;;;;5003506;28;20061;-82
2021/10/28 22:37:47;;;;;;;15.90;11.15;;;;;;;;;;5020383;28;20081;-82
2021/10/28 22:42:41;;;;;;;18.85;10.80;;;;;;;;;;5019359;28;20059;-82
2021/10/28 22:45:08;;;;;;;14.32;11.25;;;;;;;;;;5002696;28;20049;-82
2021/10/28 22:47:34;;;;;;;19.25;12.82;;;;;;;;;;5002913;28;20050;-82
2021/10/28 22:50:05;;;;;;;20.40;12.70;;;;;;;;;;5020517;28;20088;-82
2021/10/28 22:52:33;;;;;;;19.48;12.20;;;;;;;;;;5019147;28;20050;-82
2021/10/28 22:55:06;;;;;;;18.58;12.10;;;;;;;;;;5002079;28;20046;-82
2021/10/28 23:00:06;;;;;;;20.20;11.45;;;;;;;;;;5012960;28;20060;-83
2021/10/28 23:02:48;;;;;;;21.60;12.43;;;;;;;;;;4981008;28;20228;-82
2021/10/28 23:21:21;;;;;;;25.50;14.27;;;;;;;;;;4995353;28;20325;-82
2021/10/28 23:23:48;;;;;;;22.38;13.68;;;;;;;;;;4978406;28;20054;-83
2021/10/28 23:26:18;;;;;;;22.92;12.88;;;;;;;;;;4981008;28;20115;-81
2021/10/28 23:28:44;;;;;;;20.88;14.05;;;;;;;;;;4981119;28;20530;-81
2021/10/28 23:31:11;;;;;;;19.83;12.35;;;;;;;;;;4979907;28;20051;-81
2021/10/28 23:33:46;;;;;;;23.55;14.73;;;;;;;;;;4998148;28;20311;-81
2021/10/28 23:36:15;;;;;;;25.30;14.48;;;;;;;;;;4981427;28;20046;-81
2021/10/28 23:38:42;;;;;;;22.73;14.38;;;;;;;;;;4980884;28;20066;-81
2021/10/28 23:41:09;;;;;;;24.73;14.48;;;;;;;;;;4979851;28;20047;-81
2021/10/28 23:43:37;;;;;;;26.52;14.68;;;;;;;;;;4997973;28;20074;-80
2021/10/28 23:46:04;;;;;;;26.63;15.38;;;;;;;;;;4981988;28;20086;-81
2021/10/28 23:48:31;;;;;;;30.85;14.27;;;;;;;;;;4998841;28;20050;-81
2021/10/28 23:50:58;;;;;;;21.33;14.00;;;;;;;;;;4988659;28;20161;-81
2021/10/28 23:53:25;;;;;;;24.75;16.15;;;;;;;;;;4997804;28;20062;-81
2021/10/28 23:55:52;;;;;;;23.90;14.93;;;;;;;;;;5017077;28;20064;-81
2021/10/28 23:58:18;;;;;;;26.05;16.20;;;;;;;;;;5019577;28;20109;-81
